首页
METAR-TAF:

METAR-TAF

机场 :

科利佐沃國際機場

葉卡捷琳堡, 俄罗斯

纬度: 56-50N, 经度: 060-38E, 海拔: 237米

当前天气观测

该预报发布于40分钟前的01:30 UTC
风速10节,风向东北
温度 13°C
湿度 82%
气压 1012 hPa
能见度10公里或以上
1500米以下无云,无积雨云

METAR: USSS 310130Z 04005MPS CAVOK 13/10 Q1012 R08L/010060 NOSIG RMK QFE739/0986

时间: 07:10 (02:10 UTC)

预报

该预报发布于3小时和17分钟前的22:53 UTC
预报有效从31日的 00点(UTC)到 31日的 24点(UTC)
风速6节,风向东北,有时为16节阵风
能見度: 3100
散云层高于1100英尺
轻雾
从 31日的 0400点(UTC)
风速6节,风向东北,有时为25节阵风
能见度10公里或以上
散云层高于3000英尺, 积雨云.
成为
从 31日的 12点(UTC)到 31日的 14点(UTC)
能見度: 3100
多云层高于1100英尺
多云层高于2000英尺, 积雨云.
小阵雨

TAF: USSS 302253Z 3100/3124 04003G08MPS 3100 BR SCT011 FM310400 05003G13MPS 9999 SCT030CB BECMG 3112/3114 3100 -SHRA BKN011 BKN020CB

超过4000个机场的气象观测和天气预报(METAR&TAF报告)。

可查询的气象台以黄色和红色小点在地图上表示。

将鼠标移到小点上方,可查看气象台名称。

然后点击查看天气观测和预报。

如需切换地图:点击带黑十字的绿色按钮放大地图;点击带横线的绿色按钮缩小地图;或者点击绿色箭头查看邻近地区的地图。


METAR-TAF: